This is the latest recevied weather packets stored in our database for station/object IN3XSV-13. If no packets are shown the sender has not sent any weather packets the latest 10 day(s).
| Time | Temp. | Humidity | Pressure | Rain* | Wind** | Luminosity | Snow |
|---|---|---|---|---|---|---|---|
| 1787647672 | 23.33° C | 68% | 1006.1 hPa | 0 mm | - | - | - |
| 1787647372 | 23.33° C | 68% | 1006 hPa | 0 mm | - | - | - |
| 1787647072 | 23.33° C | 67% | 1006 hPa | 0 mm | - | - | - |
| 1787646772 | 23.33° C | 66% | 1006 hPa | 0 mm | - | - | - |
| 1787646472 | 23.89° C | 66% | 1006 hPa | 0 mm | - | - | - |
| 1787646172 | 23.89° C | 65% | 1005.9 hPa | 0 mm | - | - | - |
| 1787645872 | 24.44° C | 65% | 1006.1 hPa | 0 mm | - | - | - |
| 1787645572 | 24.44° C | 67% | 1006 hPa | 0 mm | - | - | - |
| 1787645272 | 24.44° C | 68% | 1006 hPa | 0 mm | - | - | - |
| 1787644972 | 24.44° C | 71% | 1006 hPa | 0 mm | - | - | - |
| 1787644672 | 23.33° C | 73% | 1006 hPa | 0 mm | - | - | - |
| 1787644372 | 22.22° C | 75% | 1006 hPa | 0 mm | - | - | - |
| 1787644072 | 22.22° C | 75% | 1006.1 hPa | 0 mm | - | - | - |
| 1787643772 | 22.78° C | 74% | 1006.1 hPa | 0 mm | - | - | - |
| 1787643472 | 22.78° C | 75% | 1006 hPa | 0 mm | - | - | - |
| 1787643172 | 22.22° C | 78% | 1005.9 hPa | 0 mm | - | - | - |
| 1787642872 | 20.56° C | 82% | 1005.9 hPa | 0 mm | - | - | - |
| 1787642572 | 20° C | 82% | 1005.9 hPa | 0 mm | - | - | - |
| 1787642272 | 20° C | 83% | 1006 hPa | 0 mm | - | - | - |
| 1787641972 | 20° C | 83% | 1005.9 hPa | 0 mm | - | - | - |
| 1787641672 | 20° C | 84% | 1005.9 hPa | 0 mm | - | - | - |
| 1787641372 | 19.44° C | 84% | 1005.8 hPa | 0 mm | - | - | - |
| 1787641072 | 19.44° C | 84% | 1005.7 hPa | 0 mm | - | - | - |
| 1787640772 | 19.44° C | 84% | 1005.7 hPa | 0 mm | - | - | - |
| 1787640472 | 19.44° C | 84% | 1005.7 hPa | 0 mm | - | - | - |
* Rain latest hour (hover to see other rain measurements)
** Current wind speed in m/s (hover to see current wind gust speed)